createdAt,value
2017-10-03T00:00:16.827Z,69.10
2017-10-03T00:02:45.543Z,70.10
2017-10-03T00:05:13.062Z,70.10
2017-10-03T00:07:40.881Z,70.70
2017-10-03T00:10:09.707Z,71.80
2017-10-03T00:12:37.158Z,71.80
2017-10-03T00:15:04.856Z,71.80
2017-10-03T00:17:33.518Z,72.20
2017-10-03T00:20:01.773Z,72.40
2017-10-03T00:22:30.016Z,72.90
2017-10-03T00:24:57.526Z,72.10
2017-10-03T00:27:25.423Z,72.00
2017-10-03T00:29:52.916Z,71.30
2017-10-03T00:32:20.408Z,71.70
2017-10-03T00:34:49.093Z,73.00
2017-10-03T00:37:16.591Z,72.40
2017-10-03T00:39:44.062Z,72.40
2017-10-03T00:42:12.349Z,72.30
2017-10-03T00:44:39.840Z,72.30
2017-10-03T00:47:07.841Z,72.10
2017-10-03T00:49:35.414Z,72.30
2017-10-03T00:52:03.111Z,72.30
2017-10-03T00:54:31.339Z,72.40
2017-10-03T00:57:00.291Z,72.30
2017-10-03T00:59:28.056Z,72.30
2017-10-03T01:01:55.880Z,72.10
2017-10-03T01:04:23.332Z,72.50
2017-10-03T01:06:51.427Z,72.10
2017-10-03T01:09:21.939Z,72.20
2017-10-03T01:11:49.379Z,72.90
2017-10-03T01:14:17.617Z,72.60
2017-10-03T01:16:45.076Z,72.00
2017-10-03T01:19:12.542Z,72.40
2017-10-03T01:21:40.028Z,72.40
2017-10-03T01:24:08.108Z,72.40
2017-10-03T01:26:37.933Z,72.70
2017-10-03T01:29:06.186Z,73.00
2017-10-03T01:31:34.755Z,73.20
2017-10-03T01:34:03.108Z,73.20
2017-10-03T01:36:30.602Z,73.80
2017-10-03T01:38:58.122Z,73.30
2017-10-03T01:41:25.949Z,73.70
2017-10-03T01:43:54.300Z,73.80
2017-10-03T01:46:22.620Z,73.00
2017-10-03T01:48:51.233Z,73.50
2017-10-03T01:51:19.455Z,73.40
2017-10-03T01:53:47.257Z,73.40
2017-10-03T01:56:15.793Z,73.70
2017-10-03T01:58:43.649Z,73.70
2017-10-03T02:01:11.101Z,73.90
2017-10-03T02:03:39.726Z,73.80
2017-10-03T02:06:07.603Z,73.70
2017-10-03T02:08:35.565Z,73.60
2017-10-03T02:11:03.480Z,74.20
2017-10-03T02:13:30.927Z,73.50
2017-10-03T02:15:58.415Z,73.70
2017-10-03T02:18:26.699Z,73.70
2017-10-03T02:20:54.194Z,73.60
2017-10-03T02:23:22.251Z,73.60
2017-10-03T02:25:50.205Z,73.80
2017-10-03T02:28:17.654Z,74.00
2017-10-03T02:30:46.659Z,73.60
2017-10-03T02:33:14.359Z,73.70
2017-10-03T02:35:41.853Z,73.70
2017-10-03T02:38:09.312Z,73.70
2017-10-03T02:40:37.098Z,73.80
2017-10-03T02:43:04.558Z,73.90
2017-10-03T02:45:32.775Z,74.00
2017-10-03T02:48:00.600Z,73.90
2017-10-03T02:50:28.064Z,74.00
2017-10-03T02:52:55.569Z,74.00
2017-10-03T02:55:23.601Z,74.10
2017-10-03T02:57:52.560Z,74.50
2017-10-03T03:00:20.485Z,74.40
2017-10-03T03:02:48.379Z,74.60
2017-10-03T03:05:16.421Z,74.80
2017-10-03T03:07:44.407Z,74.80
2017-10-03T03:10:13.456Z,74.70
2017-10-03T03:12:41.460Z,74.90
2017-10-03T03:15:08.950Z,74.90
2017-10-03T03:17:36.391Z,75.00
2017-10-03T03:20:04.995Z,75.10
2017-10-03T03:22:32.449Z,74.80
2017-10-03T03:24:59.921Z,75.00
2017-10-03T03:27:27.720Z,75.30
2017-10-03T03:29:55.185Z,75.60
2017-10-03T03:32:22.940Z,75.70
2017-10-03T03:34:50.436Z,75.70
2017-10-03T03:37:18.837Z,75.70
2017-10-03T03:39:46.309Z,75.80
2017-10-03T03:42:13.791Z,75.60
2017-10-03T03:44:42.607Z,75.60
2017-10-03T03:47:10.503Z,75.60
2017-10-03T03:49:38.726Z,75.90
2017-10-03T03:52:06.279Z,75.80
2017-10-03T03:54:34.236Z,75.90
2017-10-03T03:57:02.215Z,75.90
2017-10-03T03:59:30.873Z,76.00
2017-10-03T04:01:58.624Z,76.00
2017-10-03T04:04:26.850Z,75.80
2017-10-03T04:06:54.926Z,75.80
2017-10-03T04:09:22.878Z,75.80
2017-10-03T04:11:50.760Z,75.60
2017-10-03T04:14:19.331Z,75.60
2017-10-03T04:16:46.912Z,75.60
2017-10-03T04:19:14.796Z,75.40
2017-10-03T04:21:42.243Z,75.60
2017-10-03T04:24:10.497Z,75.60
2017-10-03T04:26:38.459Z,75.60
2017-10-03T04:29:06.719Z,75.70
2017-10-03T04:31:35.026Z,75.60
2017-10-03T04:34:02.513Z,75.60
2017-10-03T04:36:30.095Z,75.80
2017-10-03T04:38:57.682Z,75.90
2017-10-03T04:41:25.170Z,75.70
2017-10-03T04:43:53.607Z,75.90
2017-10-03T04:46:21.084Z,75.90
2017-10-03T04:48:48.938Z,76.10
2017-10-03T04:51:16.907Z,76.10
2017-10-03T04:53:44.373Z,76.30
2017-10-03T04:56:12.772Z,76.20
2017-10-03T04:58:40.945Z,76.20
2017-10-03T05:01:08.422Z,76.00
2017-10-03T05:03:36.267Z,76.20
2017-10-03T05:06:04.072Z,76.50
2017-10-03T05:08:32.675Z,76.30
2017-10-03T05:11:00.740Z,76.30
2017-10-03T05:13:29.939Z,76.30
2017-10-03T05:15:58.257Z,76.20
2017-10-03T05:18:25.926Z,76.50
2017-10-03T05:20:53.707Z,76.10
2017-10-03T05:23:21.164Z,76.10
2017-10-03T05:25:49.831Z,76.40
2017-10-03T05:28:18.082Z,76.10
2017-10-03T05:30:45.554Z,76.00
2017-10-03T05:33:13.485Z,76.10
2017-10-03T05:35:41.716Z,76.10
2017-10-03T05:38:09.194Z,76.00
2017-10-03T05:40:37.518Z,76.50
2017-10-03T05:43:05.729Z,76.60
2017-10-03T05:45:33.200Z,76.60
2017-10-03T05:48:01.205Z,76.30
2017-10-03T05:50:29.857Z,76.20
2017-10-03T05:52:57.343Z,76.00
2017-10-03T05:55:25.367Z,76.10
2017-10-03T05:57:54.129Z,76.10
2017-10-03T06:00:22.002Z,76.10
2017-10-03T06:02:50.504Z,76.00
2017-10-03T06:05:18.612Z,75.90
2017-10-03T06:07:47.374Z,76.30
2017-10-03T06:10:14.848Z,76.30
2017-10-03T06:12:42.587Z,76.80
2017-10-03T06:15:10.864Z,76.50
2017-10-03T06:17:38.632Z,76.50
2017-10-03T06:20:06.190Z,76.50
2017-10-03T06:22:33.640Z,76.30
2017-10-03T06:25:01.239Z,76.40
2017-10-03T06:27:29.126Z,75.90
2017-10-03T06:29:56.605Z,76.00
2017-10-03T06:32:25.017Z,75.40
2017-10-03T06:34:52.460Z,75.40
2017-10-03T06:37:20.006Z,75.50
2017-10-03T06:39:47.546Z,75.60
2017-10-03T06:42:15.093Z,75.60
2017-10-03T06:44:42.562Z,76.50
2017-10-03T06:47:10.347Z,75.80
2017-10-03T06:49:38.294Z,75.80
2017-10-03T06:52:06.152Z,75.20
2017-10-03T06:54:33.618Z,75.40
2017-10-03T06:57:01.927Z,75.30
2017-10-03T06:59:30.698Z,75.40
2017-10-03T07:01:59.572Z,75.10
2017-10-03T07:04:28.239Z,75.00
2017-10-03T07:06:56.828Z,75.00
2017-10-03T07:09:25.039Z,74.90
2017-10-03T07:11:53.946Z,74.90
2017-10-03T07:14:22.158Z,75.60
2017-10-03T07:16:49.732Z,75.60
2017-10-03T07:19:17.195Z,75.10
2017-10-03T07:21:45.420Z,74.50
2017-10-03T07:24:13.042Z,74.50
2017-10-03T07:26:40.873Z,74.70
2017-10-03T07:29:08.888Z,74.70
2017-10-03T07:31:36.344Z,74.00
2017-10-03T07:34:03.801Z,74.00
2017-10-03T07:36:31.688Z,74.70
2017-10-03T07:39:02.618Z,73.50
2017-10-03T07:41:30.498Z,73.50
2017-10-03T07:43:57.966Z,73.50
2017-10-03T07:46:25.998Z,73.80
2017-10-03T07:48:54.620Z,73.70
2017-10-03T07:51:22.105Z,73.60
2017-10-03T07:53:50.333Z,73.50
2017-10-03T07:56:18.259Z,73.50
2017-10-03T07:58:46.898Z,73.20
2017-10-03T08:01:15.143Z,73.60
2017-10-03T08:03:43.738Z,73.60
2017-10-03T08:06:11.414Z,73.00
2017-10-03T08:08:39.161Z,73.50
2017-10-03T08:11:07.133Z,73.40
2017-10-03T08:13:35.137Z,72.60
2017-10-03T08:16:02.712Z,72.90
2017-10-03T08:18:30.191Z,73.20
2017-10-03T08:20:57.656Z,73.30
2017-10-03T08:23:25.317Z,72.40
2017-10-03T08:25:53.227Z,73.00
2017-10-03T08:28:20.713Z,72.90
2017-10-03T08:30:48.164Z,72.40
2017-10-03T08:33:16.095Z,72.50
2017-10-03T08:35:43.571Z,72.30
2017-10-03T08:38:11.321Z,72.00
2017-10-03T08:40:38.802Z,71.80
2017-10-03T08:43:07.029Z,71.40
2017-10-03T08:45:34.512Z,71.40
2017-10-03T08:48:03.171Z,71.50
2017-10-03T08:50:31.444Z,71.80
2017-10-03T08:53:00.129Z,71.40
2017-10-03T08:55:28.183Z,71.40
2017-10-03T08:57:56.032Z,71.80
2017-10-03T09:00:23.531Z,70.80
2017-10-03T09:02:51.296Z,70.70
2017-10-03T09:05:19.522Z,70.30
2017-10-03T09:07:47.346Z,70.30
2017-10-03T09:10:14.813Z,70.90
2017-10-03T09:12:43.869Z,69.30
2017-10-03T09:15:11.373Z,69.10
2017-10-03T09:17:39.827Z,69.20
2017-10-03T09:20:07.343Z,69.10
2017-10-03T09:22:35.253Z,69.30
2017-10-03T09:25:02.729Z,69.30
2017-10-03T09:27:32.376Z,68.90
2017-10-03T09:29:59.857Z,69.40
2017-10-03T09:32:27.669Z,69.60
2017-10-03T09:34:55.154Z,68.80
2017-10-03T09:37:22.620Z,67.00
2017-10-03T09:39:50.102Z,67.50
2017-10-03T09:42:17.553Z,68.10
2017-10-03T09:44:45.119Z,66.00
2017-10-03T09:47:13.112Z,65.00
2017-10-03T09:49:41.354Z,66.10
2017-10-03T09:52:08.876Z,65.60
2017-10-03T09:54:36.370Z,64.90
2017-10-03T09:57:04.218Z,64.30
2017-10-03T09:59:32.704Z,62.40
2017-10-03T10:02:00.650Z,62.40
2017-10-03T10:04:28.142Z,62.60
2017-10-03T10:06:55.962Z,61.90
2017-10-03T10:09:23.422Z,62.10
2017-10-03T10:11:51.063Z,61.00
2017-10-03T10:14:18.854Z,60.80
2017-10-03T10:16:47.172Z,61.30
2017-10-03T10:19:14.977Z,61.20
2017-10-03T10:21:43.212Z,59.40
2017-10-03T10:24:10.697Z,59.30
2017-10-03T10:26:38.555Z,59.20
2017-10-03T10:29:06.419Z,59.00
2017-10-03T10:31:34.073Z,59.00
2017-10-03T10:34:01.524Z,59.70
2017-10-03T10:36:29.049Z,59.70
2017-10-03T10:38:56.590Z,59.40
2017-10-03T10:41:24.230Z,59.70
2017-10-03T10:43:51.987Z,60.10
2017-10-03T10:46:19.703Z,59.70
2017-10-03T10:48:47.600Z,59.10
2017-10-03T10:51:15.536Z,59.50
2017-10-03T10:53:43.078Z,60.10
2017-10-03T10:56:11.143Z,60.70
2017-10-03T10:58:39.053Z,60.20
2017-10-03T11:01:06.528Z,60.80
2017-10-03T11:03:34.483Z,59.50
2017-10-03T11:06:02.023Z,57.60
2017-10-03T11:08:30.013Z,58.10
2017-10-03T11:10:58.267Z,56.50
2017-10-03T11:13:26.499Z,56.50
2017-10-03T11:15:54.169Z,55.90
2017-10-03T11:18:22.816Z,55.70
2017-10-03T11:20:50.624Z,55.40
2017-10-03T11:23:30.820Z,53.20
2017-10-03T11:25:58.999Z,53.10
2017-10-03T11:28:26.498Z,53.60
2017-10-03T11:30:53.991Z,52.20
2017-10-03T11:33:21.542Z,52.70
2017-10-03T11:35:49.778Z,52.70
2017-10-03T11:38:17.391Z,52.70
2017-10-03T11:40:45.173Z,51.70
2017-10-03T11:43:12.822Z,51.90
2017-10-03T11:45:40.296Z,52.00
2017-10-03T11:48:07.980Z,49.50
2017-10-03T11:50:35.818Z,50.60
2017-10-03T11:53:03.727Z,51.00
2017-10-03T11:55:32.375Z,50.10
2017-10-03T11:58:00.934Z,49.10
2017-10-03T12:00:28.411Z,49.10
2017-10-03T12:02:57.166Z,49.00
2017-10-03T12:05:25.309Z,49.00
2017-10-03T12:07:53.528Z,49.70
2017-10-03T12:10:21.224Z,49.70
2017-10-03T12:12:48.668Z,49.70
2017-10-03T12:15:17.599Z,51.00
2017-10-03T12:17:45.434Z,51.00
2017-10-03T12:20:12.872Z,52.70
2017-10-03T12:22:40.347Z,54.10
2017-10-03T12:25:07.787Z,53.50
2017-10-03T12:27:35.563Z,53.80
2017-10-03T12:30:03.790Z,57.30
2017-10-03T12:32:31.351Z,57.30
2017-10-03T12:34:58.813Z,57.90
2017-10-03T12:37:27.049Z,56.40
2017-10-03T12:39:55.067Z,56.40
2017-10-03T12:42:22.617Z,56.20
2017-10-03T12:44:51.433Z,55.70
2017-10-03T12:47:19.335Z,53.50
2017-10-03T12:49:46.930Z,53.70
2017-10-03T12:52:15.206Z,53.40
2017-10-03T12:54:43.478Z,53.70
2017-10-03T12:57:13.098Z,53.60
2017-10-03T12:59:40.581Z,53.50
2017-10-03T13:02:08.559Z,53.30
2017-10-03T13:04:36.777Z,51.80
2017-10-03T13:07:04.280Z,51.80
2017-10-03T13:09:31.855Z,51.80
2017-10-03T13:11:59.404Z,52.20
2017-10-03T13:14:27.335Z,51.70
2017-10-03T13:16:54.805Z,49.50
2017-10-03T13:19:22.298Z,49.30
2017-10-03T13:21:49.932Z,50.10
2017-10-03T13:24:17.405Z,50.00
2017-10-03T13:26:45.358Z,50.20
2017-10-03T13:29:12.907Z,51.90
2017-10-03T13:31:40.367Z,52.00
2017-10-03T13:34:07.879Z,50.50
2017-10-03T13:36:35.465Z,51.40
2017-10-03T13:39:03.232Z,52.70
2017-10-03T13:41:31.875Z,55.90
2017-10-03T13:44:00.345Z,56.50
2017-10-03T13:46:28.201Z,56.50
2017-10-03T13:48:56.250Z,57.30
2017-10-03T13:51:24.270Z,57.60
2017-10-03T13:53:51.807Z,57.60
2017-10-03T13:56:19.679Z,57.90
2017-10-03T13:58:47.871Z,58.30
2017-10-03T14:01:16.183Z,57.80
2017-10-03T14:03:44.225Z,57.70
2017-10-03T14:06:11.707Z,58.40
2017-10-03T14:08:39.219Z,58.90
2017-10-03T14:11:06.761Z,58.80
2017-10-03T14:13:34.510Z,58.20
2017-10-03T14:16:02.349Z,57.30
2017-10-03T14:18:29.835Z,57.50
2017-10-03T14:20:57.876Z,54.70
2017-10-03T14:23:25.364Z,53.70
2017-10-03T14:25:55.249Z,53.30
2017-10-03T14:28:23.803Z,50.60
2017-10-03T14:30:51.853Z,50.60
2017-10-03T14:33:19.799Z,51.00
2017-10-03T14:35:47.342Z,51.50
2017-10-03T14:38:14.787Z,50.80
2017-10-03T14:40:43.777Z,52.00
2017-10-03T14:43:12.099Z,52.30
2017-10-03T14:45:39.779Z,52.20
2017-10-03T14:48:07.953Z,52.70
2017-10-03T14:50:36.931Z,53.10
2017-10-03T14:53:05.235Z,51.70
2017-10-03T14:55:33.392Z,51.60
2017-10-03T14:58:01.292Z,51.10
2017-10-03T15:00:29.096Z,51.00
2017-10-03T15:02:56.796Z,50.00
2017-10-03T15:05:25.087Z,49.00
2017-10-03T15:07:52.575Z,49.00
2017-10-03T15:10:20.084Z,48.30
2017-10-03T15:12:47.574Z,47.40
2017-10-03T15:15:16.343Z,48.90
2017-10-03T15:17:43.810Z,48.50
2017-10-03T15:20:11.291Z,49.30
2017-10-03T15:22:39.161Z,48.60
2017-10-03T15:25:06.612Z,49.00
2017-10-03T15:27:34.418Z,49.80
2017-10-03T15:30:02.943Z,50.40
2017-10-03T15:32:31.244Z,52.10
2017-10-03T15:34:58.683Z,52.10
2017-10-03T15:37:26.334Z,53.00
2017-10-03T15:39:53.785Z,54.20
2017-10-03T15:42:21.443Z,55.80
2017-10-03T15:44:48.893Z,56.10
2017-10-03T15:47:16.738Z,56.50
2017-10-03T15:49:44.217Z,57.00
2017-10-03T15:52:14.271Z,58.10
2017-10-03T15:54:41.798Z,58.10
2017-10-03T15:57:09.705Z,58.40
2017-10-03T15:59:37.162Z,58.70
2017-10-03T16:02:05.140Z,58.70
2017-10-03T16:04:32.712Z,59.10
2017-10-03T16:07:01.685Z,59.30
2017-10-03T16:09:29.186Z,59.30
2017-10-03T16:11:56.710Z,59.40
2017-10-03T16:14:25.792Z,59.70
2017-10-03T16:16:53.728Z,59.70
2017-10-03T16:19:21.186Z,59.80
2017-10-03T16:21:49.960Z,59.10
2017-10-03T16:24:17.496Z,59.10
2017-10-03T16:26:46.117Z,59.00
2017-10-03T16:29:14.158Z,59.00
2017-10-03T16:31:41.609Z,58.80
2017-10-03T16:34:09.132Z,59.00
2017-10-03T16:36:36.585Z,59.20
2017-10-03T16:39:04.186Z,58.80
2017-10-03T16:41:32.612Z,58.40
2017-10-03T16:44:00.181Z,58.20
2017-10-03T16:46:27.646Z,58.50
2017-10-03T16:48:55.533Z,58.70
2017-10-03T16:51:22.977Z,59.00
2017-10-03T16:53:50.795Z,59.30
2017-10-03T16:56:18.645Z,59.40
2017-10-03T16:58:46.617Z,59.70
2017-10-03T17:01:14.365Z,59.90
2017-10-03T17:03:42.120Z,60.10
2017-10-03T17:06:09.618Z,60.40
2017-10-03T17:08:38.644Z,61.00
2017-10-03T17:11:06.278Z,61.00
2017-10-03T17:13:33.845Z,61.00
2017-10-03T17:16:02.062Z,61.30
2017-10-03T17:18:29.526Z,61.40
2017-10-03T17:20:57.756Z,61.70
2017-10-03T17:23:25.211Z,61.80
2017-10-03T17:25:53.194Z,61.90
2017-10-03T17:28:20.673Z,62.10
2017-10-03T17:30:49.525Z,62.10
2017-10-03T17:33:17.012Z,62.10
2017-10-03T17:35:44.478Z,62.10
2017-10-03T17:38:12.045Z,62.10
2017-10-03T17:40:39.518Z,62.10
2017-10-03T17:43:08.017Z,62.30
2017-10-03T17:45:35.683Z,62.30
2017-10-03T17:48:05.442Z,62.50
2017-10-03T17:50:33.006Z,62.60
2017-10-03T17:53:01.482Z,63.00
2017-10-03T17:55:29.532Z,62.90
2017-10-03T17:57:57.558Z,63.00
2017-10-03T18:00:25.528Z,63.10
2017-10-03T18:02:53.794Z,63.20
2017-10-03T18:05:22.466Z,63.40
2017-10-03T18:07:51.696Z,63.50
2017-10-03T18:10:20.303Z,64.00
2017-10-03T18:12:48.066Z,64.00
2017-10-03T18:15:17.411Z,64.50
2017-10-03T18:17:46.628Z,65.00
2017-10-03T18:20:14.176Z,65.00
2017-10-03T18:22:41.754Z,65.30
2017-10-03T18:25:09.892Z,65.40
2017-10-03T18:27:38.347Z,65.60
2017-10-03T18:30:06.994Z,65.80
2017-10-03T18:32:34.867Z,65.80
2017-10-03T18:35:02.980Z,66.00
2017-10-03T18:37:30.531Z,66.00
2017-10-03T18:39:58.625Z,65.80
2017-10-03T18:42:27.383Z,65.70
2017-10-03T18:44:55.352Z,65.80
2017-10-03T18:47:40.608Z,65.40
2017-10-03T18:50:13.564Z,65.30
2017-10-03T18:52:41.427Z,65.30
2017-10-03T18:55:10.081Z,65.30
2017-10-03T18:57:38.463Z,65.50
2017-10-03T19:00:06.606Z,65.70
2017-10-03T19:02:35.486Z,66.50
2017-10-03T19:05:04.132Z,66.30
2017-10-03T19:07:32.125Z,66.00
2017-10-03T19:09:59.952Z,66.00
2017-10-03T19:12:28.620Z,65.80
2017-10-03T19:14:56.589Z,66.10
2017-10-03T19:17:25.237Z,65.50
2017-10-03T19:19:53.036Z,65.40
2017-10-03T19:22:21.046Z,64.90
2017-10-03T19:24:48.897Z,64.80
2017-10-03T19:27:17.563Z,64.60
2017-10-03T19:29:45.412Z,64.40
2017-10-03T19:32:13.657Z,64.00
2017-10-03T19:34:41.527Z,64.80
2017-10-03T19:37:09.474Z,64.30
2017-10-03T19:39:37.325Z,64.60
2017-10-03T19:42:05.178Z,64.50
2017-10-03T19:44:33.028Z,64.50
2017-10-03T19:47:02.803Z,64.60
2017-10-03T19:49:31.160Z,64.20
2017-10-03T19:51:58.651Z,64.70
2017-10-03T19:54:26.472Z,64.80
2017-10-03T19:56:55.250Z,64.60
2017-10-03T19:59:24.014Z,64.40
2017-10-03T20:01:52.483Z,64.80
2017-10-03T20:04:20.001Z,64.50
2017-10-03T20:06:47.454Z,64.60
2017-10-03T20:09:15.013Z,65.50
2017-10-03T20:11:42.539Z,64.90
2017-10-03T20:14:09.987Z,65.00
2017-10-03T20:16:37.852Z,65.20
2017-10-03T20:19:05.695Z,65.10
2017-10-03T20:21:33.178Z,65.00
2017-10-03T20:24:01.416Z,64.80
2017-10-03T20:26:30.113Z,65.30
2017-10-03T20:28:58.389Z,65.20
2017-10-03T20:31:26.674Z,65.00
2017-10-03T20:33:54.225Z,65.00
2017-10-03T20:36:21.768Z,65.10
2017-10-03T20:38:49.786Z,65.50
2017-10-03T20:41:18.606Z,65.40
2017-10-03T20:43:46.110Z,65.40
2017-10-03T20:46:13.571Z,65.80
2017-10-03T20:48:41.506Z,66.00
2017-10-03T20:51:09.868Z,65.90
2017-10-03T20:53:37.335Z,65.80
2017-10-03T20:56:05.052Z,66.00
2017-10-03T20:58:32.781Z,66.00
2017-10-03T21:01:01.515Z,66.20
2017-10-03T21:03:29.471Z,66.10
2017-10-03T21:05:56.963Z,66.30
2017-10-03T21:08:24.520Z,66.40
2017-10-03T21:10:52.003Z,66.40
2017-10-03T21:13:19.481Z,66.80
2017-10-03T21:15:47.926Z,66.50
2017-10-03T21:18:15.700Z,66.50
2017-10-03T21:20:43.145Z,66.80
2017-10-03T21:23:10.631Z,67.00
2017-10-03T21:25:38.915Z,67.10
2017-10-03T21:28:06.439Z,67.20
2017-10-03T21:30:34.783Z,67.10
2017-10-03T21:33:03.697Z,67.20
2017-10-03T21:35:32.788Z,67.10
2017-10-03T21:38:04.057Z,67.00
2017-10-03T21:40:33.011Z,67.10
2017-10-03T21:43:16.451Z,67.00
2017-10-03T21:45:44.250Z,67.00
2017-10-03T21:48:12.170Z,67.30
2017-10-03T21:50:39.629Z,67.40
2017-10-03T21:53:07.735Z,67.30
2017-10-03T21:55:35.641Z,68.00
2017-10-03T21:58:04.513Z,67.30
2017-10-03T22:00:32.216Z,67.20
2017-10-03T22:03:00.089Z,67.30
2017-10-03T22:05:28.552Z,66.80
2017-10-03T22:07:56.043Z,66.90
2017-10-03T22:10:24.527Z,67.00
2017-10-03T22:12:52.030Z,67.00
2017-10-03T22:15:19.951Z,66.90
2017-10-03T22:17:48.086Z,66.70
2017-10-03T22:20:16.453Z,66.80
2017-10-03T22:22:43.936Z,66.70
2017-10-03T22:25:11.823Z,66.70
2017-10-03T22:27:39.901Z,66.80
2017-10-03T22:30:07.396Z,67.00
2017-10-03T22:32:35.506Z,66.90
2017-10-03T22:35:03.026Z,67.00
2017-10-03T22:37:30.519Z,66.80
2017-10-03T22:39:58.551Z,66.70
2017-10-03T22:42:26.060Z,66.60
2017-10-03T22:44:53.521Z,66.30
2017-10-03T22:47:21.870Z,66.40
2017-10-03T22:49:49.324Z,65.90
2017-10-03T22:52:22.954Z,66.30
2017-10-03T22:54:51.996Z,66.40
2017-10-03T22:57:19.831Z,66.90
2017-10-03T22:59:47.282Z,65.90
2017-10-03T23:02:15.287Z,65.80
2017-10-03T23:04:43.510Z,66.00
2017-10-03T23:07:10.972Z,65.90
2017-10-03T23:09:38.424Z,66.00
2017-10-03T23:12:06.751Z,65.80
2017-10-03T23:14:34.206Z,65.90
2017-10-03T23:17:01.981Z,65.80
2017-10-03T23:19:30.543Z,65.80
2017-10-03T23:21:58.774Z,65.80
2017-10-03T23:24:26.452Z,65.80
2017-10-03T23:26:55.480Z,65.90
2017-10-03T23:29:22.934Z,65.90
2017-10-03T23:31:51.850Z,65.90
2017-10-03T23:34:20.081Z,66.30
2017-10-03T23:36:47.540Z,66.20
2017-10-03T23:39:15.921Z,66.40
2017-10-03T23:41:43.419Z,66.30
2017-10-03T23:44:10.873Z,66.40
2017-10-03T23:46:38.510Z,66.50
2017-10-03T23:49:06.287Z,66.70
2017-10-03T23:51:34.523Z,66.80
2017-10-03T23:54:02.003Z,66.80
2017-10-03T23:56:29.832Z,67.00
2017-10-03T23:58:58.446Z,67.00
